Aeroporto :
LOGIN :

Iscrizione | Disclaimer

   EN    FR    IT 

 










Sommario :    VFR   VFR Marginale   IFR   IFR Intensivo   IFR Molto Intensivo
Visibilità : 
Base nubi : 
>= 8 km
>= 3000ft
5 / 8 km
1000 / 3000 ft
1500m / 5 km
500 / 1000 ft
800 / 1500m
200 / 500 ft
< 800m
< 200 ft
Simboli :   Temporali  Nebbia  Neve Forte  Precipitazioni Forti  Vento > 20 kt
SIGMETs :   Varie  Temporali  Ghiacco  Turbolenza  Onda orograficha  Ceneri Vulcaniche






- Altitudine del aeroporto : 622 ft
- Codice IATA : BRS


EGGD - Bristol Int.

ULTIMO METAR :
  • 120520Z AUTO 26014KT 9999 FEW024 03/01 Q1001

METARs OBSOLETI :
  • 120450Z AUTO 27014KT 9999 FEW023 03/01 Q1001
  • 120420Z AUTO 27015KT 9999 NCD 04/01 Q1001
  • 120350Z AUTO 27014KT 9999 NCD 03/01 Q1001
  • 120320Z AUTO 28014KT 9999 SCT020 SCT025 04/01 Q1001
  • 120250Z AUTO 27017KT 9999 FEW023 04/01 Q1001

TAF TAF EGGD
Valido dal 12 a 06 ore il 13 a 06 ore UTC


120506Z 1206/1306 28013KT 9999 SCT020
TEMPO 1206/1219 28018G30KT
PROB30
TEMPO 1206/1221 7000 SHRA BKN013
ATIS : +44 1275 473 666



MetMap, La meteo Aeronautica in un colpo d'occhio ! - Copyright ORBIFLY Dicembre 2007 - Disclaimer

ORBIFLY MET'MAP TEAM :

Programmazione e sviluppo : Alexandra Zaïnal
Concezione e sviluppo : Baudouin d'Aumeries
Co-Programmazione e sviluppo : Marc-Olivier Méhu
Supporto tecnico e logistico : Manuel Goepfert
Aiuto per la traduzione : Arnaldo La Scala

Contatto : metmap@orbifly.com




FONTI E CREDITI :

   NOAA